sensor_id;sensor_type;location;lat;lon;timestamp;P1;durP1;ratioP1;P2;durP2;ratioP2
20232;SDS011;37438;55.674;13.074;2024-02-14T00:02:09;24.20;;;13.60;;
20232;SDS011;37438;55.674;13.074;2024-02-14T00:05:14;18.63;;;13.80;;
20232;SDS011;37438;55.674;13.074;2024-02-14T00:08:19;23.40;;;15.45;;
20232;SDS011;37438;55.674;13.074;2024-02-14T00:11:25;27.98;;;15.65;;
20232;SDS011;37438;55.674;13.074;2024-02-14T00:17:35;25.38;;;14.43;;
20232;SDS011;37438;55.674;13.074;2024-02-14T00:20:40;26.15;;;14.82;;
20232;SDS011;37438;55.674;13.074;2024-02-14T00:23:45;28.48;;;16.70;;
20232;SDS011;37438;55.674;13.074;2024-02-14T00:26:50;25.15;;;14.85;;
20232;SDS011;37438;55.674;13.074;2024-02-14T00:29:55;30.45;;;17.15;;
20232;SDS011;37438;55.674;13.074;2024-02-14T00:33:00;26.00;;;16.33;;
20232;SDS011;37438;55.674;13.074;2024-02-14T00:36:05;36.20;;;18.25;;
20232;SDS011;37438;55.674;13.074;2024-02-14T00:39:10;33.70;;;18.80;;
20232;SDS011;37438;55.674;13.074;2024-02-14T00:42:15;26.88;;;15.93;;
20232;SDS011;37438;55.674;13.074;2024-02-14T00:45:20;30.13;;;16.95;;
20232;SDS011;37438;55.674;13.074;2024-02-14T00:48:25;28.55;;;18.13;;
20232;SDS011;37438;55.674;13.074;2024-02-14T00:54:35;34.28;;;18.63;;
20232;SDS011;37438;55.674;13.074;2024-02-14T00:57:40;28.90;;;19.05;;
20232;SDS011;37438;55.674;13.074;2024-02-14T01:00:45;26.02;;;17.40;;
20232;SDS011;37438;55.674;13.074;2024-02-14T01:03:50;24.77;;;16.77;;
20232;SDS011;37438;55.674;13.074;2024-02-14T01:06:55;32.15;;;19.92;;
20232;SDS011;37438;55.674;13.074;2024-02-14T01:10:00;28.08;;;18.40;;
20232;SDS011;37438;55.674;13.074;2024-02-14T01:13:04;27.88;;;17.90;;
20232;SDS011;37438;55.674;13.074;2024-02-14T01:16:10;27.67;;;18.83;;
20232;SDS011;37438;55.674;13.074;2024-02-14T01:19:17;31.40;;;20.60;;
20232;SDS011;37438;55.674;13.074;2024-02-14T01:22:24;31.52;;;20.77;;
20232;SDS011;37438;55.674;13.074;2024-02-14T01:28:33;34.28;;;20.92;;
20232;SDS011;37438;55.674;13.074;2024-02-14T01:31:38;35.35;;;22.00;;
20232;SDS011;37438;55.674;13.074;2024-02-14T01:34:43;39.38;;;21.58;;
20232;SDS011;37438;55.674;13.074;2024-02-14T01:37:48;41.05;;;22.58;;
20232;SDS011;37438;55.674;13.074;2024-02-14T01:40:53;46.90;;;24.05;;
20232;SDS011;37438;55.674;13.074;2024-02-14T01:43:58;41.65;;;22.02;;
20232;SDS011;37438;55.674;13.074;2024-02-14T01:47:03;38.22;;;23.27;;
20232;SDS011;37438;55.674;13.074;2024-02-14T01:50:09;40.25;;;21.73;;
20232;SDS011;37438;55.674;13.074;2024-02-14T01:53:15;33.33;;;21.77;;
20232;SDS011;37438;55.674;13.074;2024-02-14T01:56:20;34.45;;;21.85;;
20232;SDS011;37438;55.674;13.074;2024-02-14T01:59:25;38.53;;;22.48;;
20232;SDS011;37438;55.674;13.074;2024-02-14T02:02:31;39.42;;;24.23;;
20232;SDS011;37438;55.674;13.074;2024-02-14T02:05:36;42.65;;;23.52;;
20232;SDS011;37438;55.674;13.074;2024-02-14T02:08:42;39.10;;;23.02;;
20232;SDS011;37438;55.674;13.074;2024-02-14T02:11:51;41.50;;;22.42;;
20232;SDS011;37438;55.674;13.074;2024-02-14T02:14:58;45.15;;;22.85;;
20232;SDS011;37438;55.674;13.074;2024-02-14T02:18:03;50.10;;;24.88;;
20232;SDS011;37438;55.674;13.074;2024-02-14T02:21:11;39.15;;;22.98;;
20232;SDS011;37438;55.674;13.074;2024-02-14T02:24:17;40.72;;;22.60;;
20232;SDS011;37438;55.674;13.074;2024-02-14T02:27:22;37.17;;;22.55;;
20232;SDS011;37438;55.674;13.074;2024-02-14T02:30:27;33.97;;;20.45;;
20232;SDS011;37438;55.674;13.074;2024-02-14T02:33:33;36.72;;;21.17;;
20232;SDS011;37438;55.674;13.074;2024-02-14T02:36:40;48.00;;;24.05;;
20232;SDS011;37438;55.674;13.074;2024-02-14T02:39:45;36.17;;;23.33;;
20232;SDS011;37438;55.674;13.074;2024-02-14T02:42:50;42.17;;;22.88;;
20232;SDS011;37438;55.674;13.074;2024-02-14T02:45:55;37.67;;;22.75;;
20232;SDS011;37438;55.674;13.074;2024-02-14T02:49:01;39.75;;;23.25;;
20232;SDS011;37438;55.674;13.074;2024-02-14T02:52:07;40.15;;;24.02;;
20232;SDS011;37438;55.674;13.074;2024-02-14T02:55:12;47.55;;;25.67;;
20232;SDS011;37438;55.674;13.074;2024-02-14T02:58:16;49.50;;;27.20;;
20232;SDS011;37438;55.674;13.074;2024-02-14T03:01:22;50.45;;;25.88;;
20232;SDS011;37438;55.674;13.074;2024-02-14T03:04:29;42.10;;;25.42;;
20232;SDS011;37438;55.674;13.074;2024-02-14T03:07:54;42.17;;;22.85;;
20232;SDS011;37438;55.674;13.074;2024-02-14T03:11:06;44.65;;;24.60;;
20232;SDS011;37438;55.674;13.074;2024-02-14T03:14:11;52.15;;;26.95;;
20232;SDS011;37438;55.674;13.074;2024-02-14T03:20:21;54.42;;;24.85;;
20232;SDS011;37438;55.674;13.074;2024-02-14T03:23:25;43.58;;;24.98;;
20232;SDS011;37438;55.674;13.074;2024-02-14T03:26:31;44.25;;;25.63;;
20232;SDS011;37438;55.674;13.074;2024-02-14T03:29:37;46.00;;;26.75;;
20232;SDS011;37438;55.674;13.074;2024-02-14T03:32:43;42.35;;;24.25;;
20232;SDS011;37438;55.674;13.074;2024-02-14T03:35:48;46.80;;;25.45;;
20232;SDS011;37438;55.674;13.074;2024-02-14T03:38:53;51.03;;;23.65;;
20232;SDS011;37438;55.674;13.074;2024-02-14T03:41:58;41.83;;;23.85;;
20232;SDS011;37438;55.674;13.074;2024-02-14T03:45:07;44.67;;;25.25;;
20232;SDS011;37438;55.674;13.074;2024-02-14T03:48:13;42.17;;;24.02;;
20232;SDS011;37438;55.674;13.074;2024-02-14T03:51:18;44.30;;;25.00;;
20232;SDS011;37438;55.674;13.074;2024-02-14T03:54:23;51.28;;;25.70;;
20232;SDS011;37438;55.674;13.074;2024-02-14T03:57:28;52.03;;;25.35;;
20232;SDS011;37438;55.674;13.074;2024-02-14T04:00:33;49.55;;;26.30;;
20232;SDS011;37438;55.674;13.074;2024-02-14T04:03:39;51.35;;;24.55;;
20232;SDS011;37438;55.674;13.074;2024-02-14T04:09:49;50.58;;;23.90;;
20232;SDS011;37438;55.674;13.074;2024-02-14T04:12:54;45.63;;;23.95;;
20232;SDS011;37438;55.674;13.074;2024-02-14T04:15:59;38.40;;;23.42;;
20232;SDS011;37438;55.674;13.074;2024-02-14T04:22:10;37.15;;;23.80;;
20232;SDS011;37438;55.674;13.074;2024-02-14T04:25:15;45.65;;;23.17;;
20232;SDS011;37438;55.674;13.074;2024-02-14T04:31:25;54.30;;;23.07;;
20232;SDS011;37438;55.674;13.074;2024-02-14T04:34:31;48.80;;;23.65;;
20232;SDS011;37438;55.674;13.074;2024-02-14T04:37:36;43.20;;;25.25;;
20232;SDS011;37438;55.674;13.074;2024-02-14T04:40:41;42.65;;;23.33;;
20232;SDS011;37438;55.674;13.074;2024-02-14T04:43:46;45.22;;;21.80;;
20232;SDS011;37438;55.674;13.074;2024-02-14T04:46:51;41.30;;;21.35;;
20232;SDS011;37438;55.674;13.074;2024-02-14T04:49:56;40.97;;;23.05;;
20232;SDS011;37438;55.674;13.074;2024-02-14T04:53:02;40.33;;;22.48;;
20232;SDS011;37438;55.674;13.074;2024-02-14T04:56:06;41.70;;;22.35;;
20232;SDS011;37438;55.674;13.074;2024-02-14T04:59:12;39.00;;;21.17;;
20232;SDS011;37438;55.674;13.074;2024-02-14T05:02:17;45.08;;;21.65;;
20232;SDS011;37438;55.674;13.074;2024-02-14T05:05:22;38.88;;;22.55;;
20232;SDS011;37438;55.674;13.074;2024-02-14T05:08:26;41.92;;;22.60;;
20232;SDS011;37438;55.674;13.074;2024-02-14T05:11:32;52.08;;;22.52;;
20232;SDS011;37438;55.674;13.074;2024-02-14T05:14:37;39.67;;;21.63;;
20232;SDS011;37438;55.674;13.074;2024-02-14T05:17:42;42.97;;;22.63;;
20232;SDS011;37438;55.674;13.074;2024-02-14T05:20:48;47.35;;;21.95;;
20232;SDS011;37438;55.674;13.074;2024-02-14T05:23:53;42.60;;;22.85;;
20232;SDS011;37438;55.674;13.074;2024-02-14T05:26:58;40.13;;;22.08;;
20232;SDS011;37438;55.674;13.074;2024-02-14T05:30:03;46.63;;;23.00;;
20232;SDS011;37438;55.674;13.074;2024-02-14T05:33:09;42.10;;;22.58;;
20232;SDS011;37438;55.674;13.074;2024-02-14T05:36:15;40.80;;;21.80;;
20232;SDS011;37438;55.674;13.074;2024-02-14T05:39:20;38.65;;;22.52;;
20232;SDS011;37438;55.674;13.074;2024-02-14T05:42:26;35.95;;;19.95;;
20232;SDS011;37438;55.674;13.074;2024-02-14T05:45:31;39.40;;;22.88;;
20232;SDS011;37438;55.674;13.074;2024-02-14T05:48:35;38.28;;;21.27;;
20232;SDS011;37438;55.674;13.074;2024-02-14T05:51:45;40.63;;;22.25;;
20232;SDS011;37438;55.674;13.074;2024-02-14T05:54:50;39.72;;;21.95;;
20232;SDS011;37438;55.674;13.074;2024-02-14T05:57:55;37.80;;;22.90;;
20232;SDS011;37438;55.674;13.074;2024-02-14T06:01:01;44.65;;;22.23;;
20232;SDS011;37438;55.674;13.074;2024-02-14T06:04:06;37.47;;;21.20;;
20232;SDS011;37438;55.674;13.074;2024-02-14T06:07:25;32.17;;;19.13;;
20232;SDS011;37438;55.674;13.074;2024-02-14T06:10:30;37.83;;;20.30;;
20232;SDS011;37438;55.674;13.074;2024-02-14T06:13:35;39.13;;;21.13;;
20232;SDS011;37438;55.674;13.074;2024-02-14T06:19:45;36.08;;;20.00;;
20232;SDS011;37438;55.674;13.074;2024-02-14T06:22:50;32.85;;;21.55;;
20232;SDS011;37438;55.674;13.074;2024-02-14T06:26:07;37.67;;;20.50;;
20232;SDS011;37438;55.674;13.074;2024-02-14T06:29:12;41.70;;;22.27;;
20232;SDS011;37438;55.674;13.074;2024-02-14T06:32:17;40.00;;;22.23;;
20232;SDS011;37438;55.674;13.074;2024-02-14T06:35:22;44.15;;;22.85;;
20232;SDS011;37438;55.674;13.074;2024-02-14T06:38:26;40.03;;;23.17;;
20232;SDS011;37438;55.674;13.074;2024-02-14T06:41:31;31.73;;;18.80;;
20232;SDS011;37438;55.674;13.074;2024-02-14T06:44:36;37.63;;;21.27;;
20232;SDS011;37438;55.674;13.074;2024-02-14T06:47:41;37.67;;;21.77;;
20232;SDS011;37438;55.674;13.074;2024-02-14T06:50:46;43.08;;;21.60;;
20232;SDS011;37438;55.674;13.074;2024-02-14T06:53:51;31.77;;;21.75;;
20232;SDS011;37438;55.674;13.074;2024-02-14T06:56:56;34.85;;;19.85;;
20232;SDS011;37438;55.674;13.074;2024-02-14T07:00:01;36.25;;;19.95;;
20232;SDS011;37438;55.674;13.074;2024-02-14T07:03:09;30.77;;;20.17;;
20232;SDS011;37438;55.674;13.074;2024-02-14T07:09:20;35.70;;;17.10;;
20232;SDS011;37438;55.674;13.074;2024-02-14T07:12:25;32.20;;;16.90;;
20232;SDS011;37438;55.674;13.074;2024-02-14T07:15:30;28.52;;;16.55;;
20232;SDS011;37438;55.674;13.074;2024-02-14T07:18:35;28.48;;;15.20;;
20232;SDS011;37438;55.674;13.074;2024-02-14T07:21:40;27.02;;;16.33;;
20232;SDS011;37438;55.674;13.074;2024-02-14T07:24:45;25.25;;;15.43;;
20232;SDS011;37438;55.674;13.074;2024-02-14T07:27:50;31.38;;;16.05;;
20232;SDS011;37438;55.674;13.074;2024-02-14T07:30:55;27.15;;;15.02;;
20232;SDS011;37438;55.674;13.074;2024-02-14T07:34:00;24.48;;;13.90;;
20232;SDS011;37438;55.674;13.074;2024-02-14T07:37:12;28.70;;;14.73;;
20232;SDS011;37438;55.674;13.074;2024-02-14T07:40:18;27.27;;;13.50;;
20232;SDS011;37438;55.674;13.074;2024-02-14T07:46:28;27.00;;;13.40;;
20232;SDS011;37438;55.674;13.074;2024-02-14T07:49:34;27.88;;;14.30;;
20232;SDS011;37438;55.674;13.074;2024-02-14T07:52:43;27.63;;;12.48;;
20232;SDS011;37438;55.674;13.074;2024-02-14T07:55:49;21.35;;;12.32;;
20232;SDS011;37438;55.674;13.074;2024-02-14T07:58:53;22.52;;;12.85;;
20232;SDS011;37438;55.674;13.074;2024-02-14T08:01:58;25.58;;;12.85;;
20232;SDS011;37438;55.674;13.074;2024-02-14T08:08:12;22.08;;;10.90;;
20232;SDS011;37438;55.674;13.074;2024-02-14T08:11:17;21.77;;;10.13;;
20232;SDS011;37438;55.674;13.074;2024-02-14T08:14:22;15.02;;;9.25;;
20232;SDS011;37438;55.674;13.074;2024-02-14T08:17:27;19.02;;;9.52;;
20232;SDS011;37438;55.674;13.074;2024-02-14T08:20:32;20.88;;;8.57;;
20232;SDS011;37438;55.674;13.074;2024-02-14T08:23:37;16.25;;;7.80;;
20232;SDS011;37438;55.674;13.074;2024-02-14T08:26:45;16.80;;;8.23;;
20232;SDS011;37438;55.674;13.074;2024-02-14T08:29:50;21.20;;;8.30;;
20232;SDS011;37438;55.674;13.074;2024-02-14T08:32:55;14.00;;;7.45;;
20232;SDS011;37438;55.674;13.074;2024-02-14T08:36:01;13.43;;;7.30;;
20232;SDS011;37438;55.674;13.074;2024-02-14T08:39:07;14.63;;;7.35;;
20232;SDS011;37438;55.674;13.074;2024-02-14T08:42:14;8.88;;;5.75;;
20232;SDS011;37438;55.674;13.074;2024-02-14T08:45:19;12.05;;;6.13;;
20232;SDS011;37438;55.674;13.074;2024-02-14T08:48:23;10.82;;;5.50;;
20232;SDS011;37438;55.674;13.074;2024-02-14T08:51:30;11.30;;;5.75;;
20232;SDS011;37438;55.674;13.074;2024-02-14T08:54:35;14.82;;;5.75;;
20232;SDS011;37438;55.674;13.074;2024-02-14T08:57:40;11.38;;;5.65;;
20232;SDS011;37438;55.674;13.074;2024-02-14T09:06:56;18.67;;;6.20;;
20232;SDS011;37438;55.674;13.074;2024-02-14T09:10:01;8.15;;;4.75;;
20232;SDS011;37438;55.674;13.074;2024-02-14T09:13:05;9.23;;;4.18;;
20232;SDS011;37438;55.674;13.074;2024-02-14T09:16:11;12.90;;;4.80;;
20232;SDS011;37438;55.674;13.074;2024-02-14T09:19:17;11.43;;;5.32;;
20232;SDS011;37438;55.674;13.074;2024-02-14T09:22:22;10.05;;;4.90;;
20232;SDS011;37438;55.674;13.074;2024-02-14T09:25:27;9.38;;;4.90;;
20232;SDS011;37438;55.674;13.074;2024-02-14T09:28:32;6.88;;;3.92;;
20232;SDS011;37438;55.674;13.074;2024-02-14T09:31:39;8.70;;;3.83;;
20232;SDS011;37438;55.674;13.074;2024-02-14T09:34:43;12.77;;;4.45;;
20232;SDS011;37438;55.674;13.074;2024-02-14T09:37:50;7.05;;;3.80;;
20232;SDS011;37438;55.674;13.074;2024-02-14T09:40:56;9.77;;;3.45;;
20232;SDS011;37438;55.674;13.074;2024-02-14T09:44:03;8.38;;;4.07;;
20232;SDS011;37438;55.674;13.074;2024-02-14T09:47:08;7.28;;;4.45;;
20232;SDS011;37438;55.674;13.074;2024-02-14T09:50:13;10.63;;;3.97;;
20232;SDS011;37438;55.674;13.074;2024-02-14T09:53:18;8.48;;;3.90;;
20232;SDS011;37438;55.674;13.074;2024-02-14T09:56:24;7.20;;;3.65;;
20232;SDS011;37438;55.674;13.074;2024-02-14T09:59:29;14.32;;;4.93;;
20232;SDS011;37438;55.674;13.074;2024-02-14T10:02:35;6.82;;;3.72;;
20232;SDS011;37438;55.674;13.074;2024-02-14T10:05:40;6.15;;;3.10;;
20232;SDS011;37438;55.674;13.074;2024-02-14T10:11:58;12.15;;;4.20;;
20232;SDS011;37438;55.674;13.074;2024-02-14T10:15:03;7.05;;;3.80;;
20232;SDS011;37438;55.674;13.074;2024-02-14T10:18:08;14.98;;;4.22;;
20232;SDS011;37438;55.674;13.074;2024-02-14T10:21:16;8.05;;;4.13;;
20232;SDS011;37438;55.674;13.074;2024-02-14T10:24:24;8.23;;;4.43;;
20232;SDS011;37438;55.674;13.074;2024-02-14T10:27:32;9.80;;;3.72;;
20232;SDS011;37438;55.674;13.074;2024-02-14T10:30:37;5.97;;;3.95;;
20232;SDS011;37438;55.674;13.074;2024-02-14T10:33:44;4.95;;;3.85;;
20232;SDS011;37438;55.674;13.074;2024-02-14T10:36:49;8.13;;;4.15;;
20232;SDS011;37438;55.674;13.074;2024-02-14T10:39:56;6.82;;;3.95;;
20232;SDS011;37438;55.674;13.074;2024-02-14T10:43:05;9.90;;;4.55;;
20232;SDS011;37438;55.674;13.074;2024-02-14T10:46:18;6.85;;;3.63;;
20232;SDS011;37438;55.674;13.074;2024-02-14T10:49:26;5.68;;;3.50;;
20232;SDS011;37438;55.674;13.074;2024-02-14T10:52:36;5.35;;;3.70;;
20232;SDS011;37438;55.674;13.074;2024-02-14T10:55:41;7.68;;;4.28;;
20232;SDS011;37438;55.674;13.074;2024-02-14T10:58:48;7.75;;;4.45;;
20232;SDS011;37438;55.674;13.074;2024-02-14T11:01:54;9.88;;;4.15;;
20232;SDS011;37438;55.674;13.074;2024-02-14T11:05:01;12.15;;;5.72;;
20232;SDS011;37438;55.674;13.074;2024-02-14T11:11:11;8.40;;;3.75;;
20232;SDS011;37438;55.674;13.074;2024-02-14T11:14:20;5.60;;;3.47;;
20232;SDS011;37438;55.674;13.074;2024-02-14T11:17:26;8.45;;;4.20;;
20232;SDS011;37438;55.674;13.074;2024-02-14T11:20:34;5.88;;;3.30;;
20232;SDS011;37438;55.674;13.074;2024-02-14T11:23:39;7.57;;;3.65;;
20232;SDS011;37438;55.674;13.074;2024-02-14T11:26:46;6.75;;;3.40;;
20232;SDS011;37438;55.674;13.074;2024-02-14T11:29:53;9.43;;;3.33;;
20232;SDS011;37438;55.674;13.074;2024-02-14T11:36:18;6.78;;;3.03;;
20232;SDS011;37438;55.674;13.074;2024-02-14T11:39:23;7.40;;;3.50;;
20232;SDS011;37438;55.674;13.074;2024-02-14T11:48:43;6.10;;;2.47;;
20232;SDS011;37438;55.674;13.074;2024-02-14T11:51:51;6.43;;;2.85;;
20232;SDS011;37438;55.674;13.074;2024-02-14T11:54:57;3.90;;;2.70;;
20232;SDS011;37438;55.674;13.074;2024-02-14T11:58:07;34.25;;;13.77;;
20232;SDS011;37438;55.674;13.074;2024-02-14T12:01:14;7.97;;;2.85;;
20232;SDS011;37438;55.674;13.074;2024-02-14T12:07:25;6.27;;;2.87;;
20232;SDS011;37438;55.674;13.074;2024-02-14T12:10:31;4.28;;;2.47;;
20232;SDS011;37438;55.674;13.074;2024-02-14T12:13:36;4.75;;;2.78;;
20232;SDS011;37438;55.674;13.074;2024-02-14T12:16:41;4.20;;;2.92;;
20232;SDS011;37438;55.674;13.074;2024-02-14T12:19:46;3.90;;;2.88;;
20232;SDS011;37438;55.674;13.074;2024-02-14T12:22:52;7.18;;;2.83;;
20232;SDS011;37438;55.674;13.074;2024-02-14T12:29:02;5.10;;;2.70;;
20232;SDS011;37438;55.674;13.074;2024-02-14T12:32:07;3.78;;;3.17;;
20232;SDS011;37438;55.674;13.074;2024-02-14T12:35:12;4.55;;;2.20;;
20232;SDS011;37438;55.674;13.074;2024-02-14T12:41:22;3.97;;;2.70;;
20232;SDS011;37438;55.674;13.074;2024-02-14T12:44:29;6.00;;;3.30;;
20232;SDS011;37438;55.674;13.074;2024-02-14T12:47:34;11.63;;;3.28;;
20232;SDS011;37438;55.674;13.074;2024-02-14T12:53:49;4.50;;;3.30;;
20232;SDS011;37438;55.674;13.074;2024-02-14T12:59:59;6.05;;;3.08;;
20232;SDS011;37438;55.674;13.074;2024-02-14T13:03:04;10.25;;;3.63;;
20232;SDS011;37438;55.674;13.074;2024-02-14T13:06:08;9.00;;;3.25;;
20232;SDS011;37438;55.674;13.074;2024-02-14T13:09:14;5.32;;;3.30;;
20232;SDS011;37438;55.674;13.074;2024-02-14T13:12:19;10.70;;;4.18;;
20232;SDS011;37438;55.674;13.074;2024-02-14T13:15:25;6.65;;;3.65;;
20232;SDS011;37438;55.674;13.074;2024-02-14T13:18:30;5.22;;;2.95;;
20232;SDS011;37438;55.674;13.074;2024-02-14T13:21:35;9.77;;;3.17;;
20232;SDS011;37438;55.674;13.074;2024-02-14T13:24:39;13.02;;;3.97;;
20232;SDS011;37438;55.674;13.074;2024-02-14T13:27:44;5.50;;;3.55;;
20232;SDS011;37438;55.674;13.074;2024-02-14T13:30:50;7.50;;;3.53;;
20232;SDS011;37438;55.674;13.074;2024-02-14T13:33:58;10.48;;;3.85;;
20232;SDS011;37438;55.674;13.074;2024-02-14T13:37:04;6.10;;;2.97;;
20232;SDS011;37438;55.674;13.074;2024-02-14T13:40:09;8.48;;;3.38;;
20232;SDS011;37438;55.674;13.074;2024-02-14T13:43:15;4.53;;;3.33;;
20232;SDS011;37438;55.674;13.074;2024-02-14T13:46:22;5.13;;;3.42;;
20232;SDS011;37438;55.674;13.074;2024-02-14T13:49:29;7.28;;;3.40;;
20232;SDS011;37438;55.674;13.074;2024-02-14T13:52:35;8.80;;;2.55;;
20232;SDS011;37438;55.674;13.074;2024-02-14T13:58:45;6.85;;;2.95;;
20232;SDS011;37438;55.674;13.074;2024-02-14T14:01:50;7.80;;;2.50;;
20232;SDS011;37438;55.674;13.074;2024-02-14T14:04:54;4.78;;;2.58;;
20232;SDS011;37438;55.674;13.074;2024-02-14T14:07:59;2.95;;;2.20;;
20232;SDS011;37438;55.674;13.074;2024-02-14T14:11:05;5.85;;;2.95;;
20232;SDS011;37438;55.674;13.074;2024-02-14T14:14:09;10.98;;;2.85;;
20232;SDS011;37438;55.674;13.074;2024-02-14T14:17:19;5.25;;;2.65;;
20232;SDS011;37438;55.674;13.074;2024-02-14T14:20:24;8.82;;;3.33;;
20232;SDS011;37438;55.674;13.074;2024-02-14T14:23:29;6.55;;;2.72;;
20232;SDS011;37438;55.674;13.074;2024-02-14T14:26:34;7.72;;;2.95;;
20232;SDS011;37438;55.674;13.074;2024-02-14T14:29:42;11.52;;;4.43;;
20232;SDS011;37438;55.674;13.074;2024-02-14T14:32:47;6.80;;;3.10;;
20232;SDS011;37438;55.674;13.074;2024-02-14T14:35:53;3.95;;;2.55;;
20232;SDS011;37438;55.674;13.074;2024-02-14T14:38:59;10.18;;;2.97;;
20232;SDS011;37438;55.674;13.074;2024-02-14T14:42:04;5.80;;;2.72;;
20232;SDS011;37438;55.674;13.074;2024-02-14T14:45:10;5.40;;;2.42;;
20232;SDS011;37438;55.674;13.074;2024-02-14T14:48:18;7.93;;;2.83;;
20232;SDS011;37438;55.674;13.074;2024-02-14T14:51:28;4.97;;;3.20;;
20232;SDS011;37438;55.674;13.074;2024-02-14T14:54:37;12.18;;;3.08;;
20232;SDS011;37438;55.674;13.074;2024-02-14T14:58:12;8.00;;;2.58;;
20232;SDS011;37438;55.674;13.074;2024-02-14T15:01:18;4.20;;;2.75;;
20232;SDS011;37438;55.674;13.074;2024-02-14T15:04:24;9.10;;;3.17;;
20232;SDS011;37438;55.674;13.074;2024-02-14T15:07:33;10.13;;;3.17;;
20232;SDS011;37438;55.674;13.074;2024-02-14T15:10:40;7.53;;;2.90;;
20232;SDS011;37438;55.674;13.074;2024-02-14T15:13:45;2.63;;;2.35;;
20232;SDS011;37438;55.674;13.074;2024-02-14T15:16:52;9.70;;;2.42;;
20232;SDS011;37438;55.674;13.074;2024-02-14T15:19:59;5.90;;;2.50;;
20232;SDS011;37438;55.674;13.074;2024-02-14T15:23:07;5.35;;;2.60;;
20232;SDS011;37438;55.674;13.074;2024-02-14T15:26:13;5.82;;;2.60;;
20232;SDS011;37438;55.674;13.074;2024-02-14T15:29:21;9.02;;;3.40;;
20232;SDS011;37438;55.674;13.074;2024-02-14T15:32:44;5.97;;;3.63;;
20232;SDS011;37438;55.674;13.074;2024-02-14T15:36:10;15.63;;;3.28;;
20232;SDS011;37438;55.674;13.074;2024-02-14T15:39:20;6.72;;;3.45;;
20232;SDS011;37438;55.674;13.074;2024-02-14T15:42:24;7.75;;;3.47;;
20232;SDS011;37438;55.674;13.074;2024-02-14T15:45:30;7.07;;;3.42;;
20232;SDS011;37438;55.674;13.074;2024-02-14T15:48:35;9.32;;;5.05;;
20232;SDS011;37438;55.674;13.074;2024-02-14T15:54:44;5.93;;;3.40;;
20232;SDS011;37438;55.674;13.074;2024-02-14T15:57:49;8.02;;;3.72;;
20232;SDS011;37438;55.674;13.074;2024-02-14T16:04:00;7.30;;;3.22;;
20232;SDS011;37438;55.674;13.074;2024-02-14T16:07:05;8.57;;;3.78;;
20232;SDS011;37438;55.674;13.074;2024-02-14T16:10:10;6.45;;;4.10;;
20232;SDS011;37438;55.674;13.074;2024-02-14T16:13:14;7.55;;;4.32;;
20232;SDS011;37438;55.674;13.074;2024-02-14T16:16:20;5.38;;;3.50;;
20232;SDS011;37438;55.674;13.074;2024-02-14T16:19:25;10.55;;;4.75;;
20232;SDS011;37438;55.674;13.074;2024-02-14T16:22:30;9.45;;;4.38;;
20232;SDS011;37438;55.674;13.074;2024-02-14T16:25:34;8.20;;;4.70;;
20232;SDS011;37438;55.674;13.074;2024-02-14T16:28:41;13.65;;;5.38;;
20232;SDS011;37438;55.674;13.074;2024-02-14T16:31:46;10.85;;;4.90;;
20232;SDS011;37438;55.674;13.074;2024-02-14T16:34:51;7.82;;;4.70;;
20232;SDS011;37438;55.674;13.074;2024-02-14T16:37:57;9.23;;;5.75;;
20232;SDS011;37438;55.674;13.074;2024-02-14T16:41:03;11.43;;;6.97;;
20232;SDS011;37438;55.674;13.074;2024-02-14T16:44:07;14.35;;;6.13;;
20232;SDS011;37438;55.674;13.074;2024-02-14T16:47:12;13.15;;;6.47;;
20232;SDS011;37438;55.674;13.074;2024-02-14T16:50:18;16.88;;;6.70;;
20232;SDS011;37438;55.674;13.074;2024-02-14T16:53:23;17.30;;;7.47;;
20232;SDS011;37438;55.674;13.074;2024-02-14T16:56:27;17.17;;;6.93;;
20232;SDS011;37438;55.674;13.074;2024-02-14T16:59:40;19.48;;;8.80;;
20232;SDS011;37438;55.674;13.074;2024-02-14T17:02:46;15.18;;;8.02;;
20232;SDS011;37438;55.674;13.074;2024-02-14T17:05:51;19.55;;;8.45;;
20232;SDS011;37438;55.674;13.074;2024-02-14T17:08:57;19.08;;;8.57;;
20232;SDS011;37438;55.674;13.074;2024-02-14T17:12:05;26.05;;;9.77;;
20232;SDS011;37438;55.674;13.074;2024-02-14T17:15:12;17.67;;;9.82;;
20232;SDS011;37438;55.674;13.074;2024-02-14T17:18:17;21.23;;;10.88;;
20232;SDS011;37438;55.674;13.074;2024-02-14T17:24:27;18.55;;;10.60;;
20232;SDS011;37438;55.674;13.074;2024-02-14T17:27:32;31.00;;;12.57;;
20232;SDS011;37438;55.674;13.074;2024-02-14T17:33:46;26.95;;;12.80;;
20232;SDS011;37438;55.674;13.074;2024-02-14T17:36:52;28.02;;;12.68;;
20232;SDS011;37438;55.674;13.074;2024-02-14T17:39:57;26.05;;;12.35;;
20232;SDS011;37438;55.674;13.074;2024-02-14T17:43:01;36.33;;;11.88;;
20232;SDS011;37438;55.674;13.074;2024-02-14T17:46:06;36.05;;;15.60;;
20232;SDS011;37438;55.674;13.074;2024-02-14T17:52:18;23.00;;;13.55;;
20232;SDS011;37438;55.674;13.074;2024-02-14T17:55:24;27.20;;;13.40;;
20232;SDS011;37438;55.674;13.074;2024-02-14T17:58:29;21.58;;;13.48;;
20232;SDS011;37438;55.674;13.074;2024-02-14T18:01:35;25.50;;;13.60;;
20232;SDS011;37438;55.674;13.074;2024-02-14T18:04:41;26.55;;;14.80;;
20232;SDS011;37438;55.674;13.074;2024-02-14T18:07:46;32.85;;;15.57;;
20232;SDS011;37438;55.674;13.074;2024-02-14T18:10:51;36.38;;;15.18;;
20232;SDS011;37438;55.674;13.074;2024-02-14T18:13:57;34.13;;;14.95;;
20232;SDS011;37438;55.674;13.074;2024-02-14T18:17:02;29.70;;;14.80;;
20232;SDS011;37438;55.674;13.074;2024-02-14T18:20:07;28.00;;;14.77;;
20232;SDS011;37438;55.674;13.074;2024-02-14T18:23:12;33.75;;;15.68;;
20232;SDS011;37438;55.674;13.074;2024-02-14T18:26:18;39.72;;;16.42;;
20232;SDS011;37438;55.674;13.074;2024-02-14T18:29:25;32.50;;;16.60;;
20232;SDS011;37438;55.674;13.074;2024-02-14T18:32:30;39.80;;;15.93;;
20232;SDS011;37438;55.674;13.074;2024-02-14T18:35:35;33.05;;;15.73;;
20232;SDS011;37438;55.674;13.074;2024-02-14T18:38:40;34.75;;;17.27;;
20232;SDS011;37438;55.674;13.074;2024-02-14T18:41:45;43.40;;;17.42;;
20232;SDS011;37438;55.674;13.074;2024-02-14T18:44:50;40.63;;;16.17;;
20232;SDS011;37438;55.674;13.074;2024-02-14T18:47:55;45.53;;;17.65;;
20232;SDS011;37438;55.674;13.074;2024-02-14T18:51:00;38.25;;;17.90;;
20232;SDS011;37438;55.674;13.074;2024-02-14T18:54:05;38.00;;;17.40;;
20232;SDS011;37438;55.674;13.074;2024-02-14T18:57:11;42.70;;;18.35;;
20232;SDS011;37438;55.674;13.074;2024-02-14T19:00:16;42.22;;;17.38;;
20232;SDS011;37438;55.674;13.074;2024-02-14T19:03:22;46.45;;;18.15;;
20232;SDS011;37438;55.674;13.074;2024-02-14T19:06:29;42.15;;;16.30;;
20232;SDS011;37438;55.674;13.074;2024-02-14T19:09:34;44.15;;;16.70;;
20232;SDS011;37438;55.674;13.074;2024-02-14T19:12:39;56.45;;;20.60;;
20232;SDS011;37438;55.674;13.074;2024-02-14T19:15:44;48.38;;;19.77;;
20232;SDS011;37438;55.674;13.074;2024-02-14T19:18:49;47.58;;;18.65;;
20232;SDS011;37438;55.674;13.074;2024-02-14T19:21:54;55.33;;;18.77;;
20232;SDS011;37438;55.674;13.074;2024-02-14T19:25:00;55.22;;;17.92;;
20232;SDS011;37438;55.674;13.074;2024-02-14T19:28:05;47.00;;;19.88;;
20232;SDS011;37438;55.674;13.074;2024-02-14T19:31:13;51.97;;;19.73;;
20232;SDS011;37438;55.674;13.074;2024-02-14T19:34:18;55.25;;;20.08;;